createdAt,value
2018-09-28T00:01:23.049Z,7.03
2018-09-28T00:06:17.496Z,7.83
2018-09-28T00:11:12.289Z,7.90
2018-09-28T00:16:06.732Z,6.53
2018-09-28T00:21:01.192Z,6.20
2018-09-28T00:25:55.760Z,7.57
2018-09-28T00:30:50.348Z,7.40
2018-09-28T00:35:44.858Z,7.17
2018-09-28T00:40:39.497Z,7.60
2018-09-28T00:45:33.938Z,7.13
2018-09-28T00:50:28.500Z,7.33
2018-09-28T00:55:22.964Z,7.63
2018-09-28T01:00:18.320Z,8.40
2018-09-28T01:05:12.778Z,8.17
2018-09-28T01:10:07.429Z,8.93
2018-09-28T01:15:01.894Z,8.97
2018-09-28T01:19:56.338Z,8.00
2018-09-28T01:24:50.816Z,8.50
2018-09-28T01:29:45.299Z,8.67
2018-09-28T01:34:39.782Z,8.40
2018-09-28T01:39:34.243Z,8.00
2018-09-28T01:44:28.687Z,8.00
2018-09-28T01:49:23.608Z,7.93
2018-09-28T01:54:18.194Z,8.20
2018-09-28T01:59:12.653Z,8.50
2018-09-28T02:04:07.354Z,8.60
2018-09-28T02:09:01.948Z,8.27
2018-09-28T02:13:56.386Z,8.80
2018-09-28T02:18:50.847Z,7.90
2018-09-28T02:23:45.729Z,8.77
2018-09-28T02:28:40.693Z,7.93
2018-09-28T02:33:35.158Z,7.90
2018-09-28T02:38:29.611Z,8.30
2018-09-28T02:43:24.091Z,8.13
2018-09-28T02:48:18.518Z,7.37
2018-09-28T02:53:19.411Z,7.63
2018-09-28T02:58:13.859Z,7.70
2018-09-28T03:03:08.308Z,8.53
2018-09-28T03:08:02.755Z,8.60
2018-09-28T03:12:57.273Z,8.97
2018-09-28T03:17:54.146Z,8.13
2018-09-28T03:22:48.636Z,8.47
2018-09-28T03:27:43.083Z,8.20
2018-09-28T03:32:37.525Z,8.40
2018-09-28T03:37:32.195Z,8.43
2018-09-28T03:42:26.629Z,8.50
2018-09-28T03:47:21.084Z,9.20
2018-09-28T03:52:15.586Z,8.90
2018-09-28T03:57:10.034Z,9.00
2018-09-28T04:02:04.482Z,8.97
2018-09-28T04:06:58.927Z,9.57
2018-09-28T04:11:53.442Z,9.57
2018-09-28T04:16:48.047Z,10.57
2018-09-28T04:21:46.595Z,9.87
2018-09-28T04:26:41.547Z,10.17
2018-09-28T04:31:36.393Z,10.53
2018-09-28T04:36:30.880Z,11.23
2018-09-28T04:41:25.327Z,10.80
2018-09-28T04:46:19.755Z,11.00
2018-09-28T04:51:14.174Z,11.03
2018-09-28T04:56:08.652Z,11.63
2018-09-28T05:01:03.163Z,12.93
2018-09-28T05:05:57.954Z,12.67
2018-09-28T05:10:53.450Z,12.87
2018-09-28T05:15:48.364Z,12.97
2018-09-28T05:20:42.840Z,13.07
2018-09-28T05:25:37.414Z,12.47
2018-09-28T05:30:31.938Z,13.13
2018-09-28T05:35:26.515Z,13.33
2018-09-28T05:40:20.940Z,12.33
2018-09-28T05:45:15.420Z,12.87
2018-09-28T05:50:10.070Z,13.97
2018-09-28T05:55:04.880Z,13.63
2018-09-28T06:00:05.116Z,12.53
2018-09-28T06:05:05.082Z,12.77
2018-09-28T06:09:59.572Z,12.23
2018-09-28T06:14:54.476Z,11.47
2018-09-28T06:19:49.082Z,10.70
2018-09-28T06:24:43.494Z,9.60
2018-09-28T06:29:37.956Z,8.90
2018-09-28T06:34:32.516Z,8.23
2018-09-28T06:39:27.468Z,9.47
2018-09-28T06:44:21.912Z,9.33
2018-09-28T06:49:16.348Z,9.20
2018-09-28T06:54:11.024Z,12.30
2018-09-28T06:59:05.666Z,18.50
2018-09-28T07:04:00.400Z,20.13
2018-09-28T07:08:55.013Z,20.80
2018-09-28T07:13:49.695Z,19.33
2018-09-28T07:18:44.199Z,19.63
2018-09-28T07:23:39.042Z,20.30
2018-09-28T07:28:33.875Z,20.40
2018-09-28T07:33:28.358Z,20.63
2018-09-28T07:38:22.855Z,18.57
2018-09-28T07:43:17.344Z,18.30
2018-09-28T07:48:12.056Z,19.23
2018-09-28T07:53:07.149Z,20.70
2018-09-28T07:58:01.652Z,24.50
2018-09-28T08:02:56.161Z,29.03
2018-09-28T08:07:50.904Z,31.13
2018-09-28T08:12:45.710Z,34.27
2018-09-28T08:17:40.189Z,32.57
2018-09-28T08:22:34.695Z,31.63
2018-09-28T08:27:29.412Z,32.73
2018-09-28T08:32:23.942Z,33.83
2018-09-28T08:37:18.382Z,34.40
2018-09-28T08:42:12.863Z,36.27
2018-09-28T08:47:07.331Z,35.43
2018-09-28T08:52:01.858Z,36.53
2018-09-28T08:56:56.359Z,36.10
2018-09-28T09:01:51.095Z,37.77
2018-09-28T09:06:45.576Z,36.93
2018-09-28T09:11:40.058Z,37.90
2018-09-28T09:16:34.488Z,38.27
2018-09-28T09:21:29.031Z,37.80
2018-09-28T09:26:23.502Z,38.03
2018-09-28T09:31:18.028Z,40.53
2018-09-28T09:36:12.510Z,39.87
2018-09-28T09:41:07.415Z,40.53
2018-09-28T09:46:01.882Z,41.30
2018-09-28T09:50:56.414Z,39.70
2018-09-28T09:55:50.876Z,39.60
2018-09-28T10:00:51.846Z,39.03
2018-09-28T10:05:46.287Z,38.53
2018-09-28T10:10:40.722Z,37.90
2018-09-28T10:15:35.262Z,35.60
2018-09-28T10:20:29.726Z,33.83
2018-09-28T10:25:24.186Z,30.67
2018-09-28T10:30:18.626Z,30.57
2018-09-28T10:35:13.079Z,28.53
2018-09-28T10:40:07.618Z,27.13
2018-09-28T10:45:02.234Z,26.40
2018-09-28T10:49:56.734Z,25.33
2018-09-28T10:54:51.414Z,23.90
2018-09-28T10:59:45.906Z,21.47
2018-09-28T11:04:40.626Z,19.90
2018-09-28T11:09:35.311Z,20.83
2018-09-28T11:14:29.925Z,18.83
2018-09-28T11:19:24.398Z,17.70
2018-09-28T11:24:18.951Z,15.40
2018-09-28T11:29:13.573Z,15.10
2018-09-28T11:34:08.083Z,12.87
2018-09-28T11:39:02.818Z,11.17
2018-09-28T11:43:57.317Z,9.87
2018-09-28T11:48:51.954Z,8.73
2018-09-28T11:53:46.399Z,9.67
2018-09-28T11:58:41.072Z,8.43
2018-09-28T12:03:35.537Z,8.77
2018-09-28T12:08:30.258Z,7.17
2018-09-28T12:13:24.973Z,6.00
2018-09-28T12:18:19.687Z,5.93
2018-09-28T12:23:14.314Z,5.60
2018-09-28T12:28:08.935Z,4.80
2018-09-28T12:33:03.414Z,3.90
2018-09-28T12:37:58.436Z,3.73
2018-09-28T12:42:53.336Z,3.47
2018-09-28T12:47:48.278Z,3.40
2018-09-28T12:52:42.858Z,3.03
2018-09-28T12:57:37.336Z,3.10
2018-09-28T13:02:32.208Z,3.73
2018-09-28T13:07:26.975Z,2.97
2018-09-28T13:12:21.479Z,3.40
2018-09-28T13:17:16.143Z,4.00
2018-09-28T13:22:10.824Z,3.47
2018-09-28T13:27:05.374Z,4.30
2018-09-28T13:32:00.161Z,3.83
2018-09-28T13:36:54.928Z,3.63
2018-09-28T13:41:49.487Z,3.87
2018-09-28T13:46:44.002Z,4.50
2018-09-28T13:51:38.874Z,4.20
2018-09-28T13:56:33.356Z,3.77
2018-09-28T14:01:28.013Z,3.90
2018-09-28T14:06:23.154Z,4.13
2018-09-28T14:11:18.567Z,3.87
2018-09-28T14:16:13.056Z,4.30
2018-09-28T14:21:08.372Z,4.27
2018-09-28T14:26:02.843Z,3.73
2018-09-28T14:30:57.672Z,3.27
2018-09-28T14:35:52.150Z,4.20
2018-09-28T14:40:46.780Z,3.50
2018-09-28T14:45:41.630Z,3.73
2018-09-28T14:50:36.177Z,3.43
2018-09-28T14:55:30.936Z,3.33
2018-09-28T15:00:25.720Z,3.63
2018-09-28T15:05:20.288Z,3.57
2018-09-28T15:10:15.151Z,4.10
2018-09-28T15:15:11.567Z,3.40
2018-09-28T15:20:06.398Z,3.50
2018-09-28T15:25:01.381Z,2.73
2018-09-28T15:29:56.025Z,3.97
2018-09-28T15:34:50.528Z,3.37
2018-09-28T15:39:45.192Z,4.37
2018-09-28T15:44:39.734Z,3.90
2018-09-28T15:49:34.283Z,3.93
2018-09-28T15:54:28.792Z,3.90
2018-09-28T15:59:23.319Z,3.53
2018-09-28T16:04:17.931Z,3.73
2018-09-28T16:09:12.673Z,3.83
2018-09-28T16:14:07.221Z,3.30
2018-09-28T16:19:01.877Z,3.63
2018-09-28T16:23:56.406Z,3.20
2018-09-28T16:28:50.859Z,2.87
2018-09-28T16:33:45.622Z,3.37
2018-09-28T16:38:40.147Z,3.03
2018-09-28T16:43:34.629Z,2.60
2018-09-28T16:48:29.120Z,3.13
2018-09-28T16:53:23.803Z,2.80
2018-09-28T16:58:18.297Z,3.30
2018-09-28T17:03:12.916Z,4.10
2018-09-28T17:08:07.509Z,3.50
2018-09-28T17:13:02.063Z,2.80
2018-09-28T17:17:56.649Z,3.20
2018-09-28T17:22:51.232Z,3.60
2018-09-28T17:27:45.750Z,3.43
2018-09-28T17:32:40.333Z,3.37
2018-09-28T17:37:34.902Z,3.20
2018-09-28T17:42:29.415Z,3.37
2018-09-28T17:47:24.017Z,3.23
2018-09-28T17:52:18.544Z,3.97
2018-09-28T17:57:13.583Z,3.93
2018-09-28T18:02:08.111Z,3.50
2018-09-28T18:07:03.465Z,3.70
2018-09-28T18:11:57.944Z,3.80
2018-09-28T18:16:53.282Z,4.23
2018-09-28T18:21:47.726Z,4.27
2018-09-28T18:26:42.234Z,3.93
2018-09-28T18:31:36.802Z,5.70
2018-09-28T18:36:31.260Z,5.23
2018-09-28T18:41:25.739Z,5.87
2018-09-28T18:46:20.590Z,5.70
2018-09-28T18:51:15.330Z,4.13
2018-09-28T18:56:09.796Z,4.27
2018-09-28T19:01:04.386Z,5.80
2018-09-28T19:05:59.299Z,6.03
2018-09-28T19:10:54.014Z,7.93
2018-09-28T19:15:49.344Z,7.03
2018-09-28T19:20:45.270Z,7.23
2018-09-28T19:25:40.070Z,7.67
2018-09-28T19:30:36.264Z,6.70
2018-09-28T19:35:30.724Z,5.10
2018-09-28T19:40:25.456Z,5.40
2018-09-28T19:45:20.191Z,5.50
2018-09-28T19:50:14.691Z,5.97
2018-09-28T19:55:09.206Z,5.60
2018-09-28T20:00:04.061Z,5.57
2018-09-28T20:04:58.854Z,6.13
2018-09-28T20:09:53.709Z,8.67
2018-09-28T20:14:48.268Z,8.17
2018-09-28T20:19:42.891Z,8.53
2018-09-28T20:24:37.364Z,8.60
2018-09-28T20:29:31.822Z,7.20
2018-09-28T20:34:26.531Z,7.13
2018-09-28T20:39:20.998Z,6.70
2018-09-28T20:44:15.685Z,5.37
2018-09-28T20:49:10.349Z,6.47
2018-09-28T20:54:05.811Z,5.53
2018-09-28T20:59:00.642Z,5.50
2018-09-28T21:03:55.170Z,6.90
2018-09-28T21:08:51.891Z,8.00
2018-09-28T21:13:47.939Z,7.13
2018-09-28T21:18:42.636Z,6.60
2018-09-28T21:23:37.422Z,6.13
2018-09-28T21:28:32.302Z,6.60
2018-09-28T21:33:26.985Z,4.83
2018-09-28T21:38:22.105Z,5.77
2018-09-28T21:43:17.252Z,5.33
2018-09-28T21:48:14.213Z,5.20
2018-09-28T21:53:09.071Z,5.80
2018-09-28T21:58:03.758Z,5.63
2018-09-28T22:02:59.026Z,5.63
2018-09-28T22:07:54.017Z,5.13
2018-09-28T22:12:49.050Z,4.80
2018-09-28T22:17:43.510Z,5.27
2018-09-28T22:22:38.159Z,5.07
2018-09-28T22:27:32.931Z,6.00
2018-09-28T22:32:27.599Z,4.67
2018-09-28T22:37:22.103Z,4.23
2018-09-28T22:42:16.720Z,4.63
2018-09-28T22:47:11.794Z,4.47
2018-09-28T22:52:08.612Z,5.33
2018-09-28T22:57:03.727Z,3.67
2018-09-28T23:01:58.249Z,4.10
2018-09-28T23:06:52.732Z,4.83
2018-09-28T23:11:47.248Z,4.73
2018-09-28T23:16:41.908Z,4.40
2018-09-28T23:21:36.622Z,4.83
2018-09-28T23:26:31.300Z,5.40
2018-09-28T23:31:25.784Z,5.57
2018-09-28T23:36:20.368Z,5.67
2018-09-28T23:41:14.831Z,5.13
2018-09-28T23:46:09.422Z,5.00
2018-09-28T23:51:04.114Z,4.87
2018-09-28T23:55:58.564Z,4.67
